sensor_id;sensor_type;location;lat;lon;timestamp;pressure;altitude;pressure_sealevel;temperature;humidity
36092;BME280;22147;52.388;13.390;2023-01-30T00:01:06;100789.28;;;-0.38;100.00
36092;BME280;22147;52.388;13.390;2023-01-30T00:03:47;100795.88;;;-0.34;100.00
36092;BME280;22147;52.388;13.390;2023-01-30T00:06:18;100778.03;;;-0.42;100.00
36092;BME280;22147;52.388;13.390;2023-01-30T00:08:48;100776.78;;;-0.34;100.00
36092;BME280;22147;52.388;13.390;2023-01-30T00:11:20;100771.03;;;-0.32;100.00
36092;BME280;22147;52.388;13.390;2023-01-30T00:13:50;100758.50;;;-0.33;100.00
36092;BME280;22147;52.388;13.390;2023-01-30T00:16:20;100745.63;;;-0.38;100.00
36092;BME280;22147;52.388;13.390;2023-01-30T00:18:51;100737.22;;;-0.31;100.00
36092;BME280;22147;52.388;13.390;2023-01-30T00:21:21;100738.25;;;-0.37;100.00
36092;BME280;22147;52.388;13.390;2023-01-30T00:23:51;100730.94;;;-0.54;100.00
36092;BME280;22147;52.388;13.390;2023-01-30T00:26:21;100727.06;;;-0.58;100.00
36092;BME280;22147;52.388;13.390;2023-01-30T00:28:51;100726.59;;;-0.55;100.00
36092;BME280;22147;52.388;13.390;2023-01-30T00:31:21;100712.63;;;-0.58;100.00
36092;BME280;22147;52.388;13.390;2023-01-30T00:33:51;100696.56;;;-0.55;100.00
36092;BME280;22147;52.388;13.390;2023-01-30T00:36:21;100687.91;;;-0.47;100.00
36092;BME280;22147;52.388;13.390;2023-01-30T00:38:50;100672.69;;;-0.43;100.00
36092;BME280;22147;52.388;13.390;2023-01-30T00:41:19;100659.75;;;-0.52;100.00
36092;BME280;22147;52.388;13.390;2023-01-30T00:43:50;100651.06;;;-0.49;100.00
36092;BME280;22147;52.388;13.390;2023-01-30T00:46:49;100628.19;;;-0.43;100.00
36092;BME280;22147;52.388;13.390;2023-01-30T00:49:36;100619.41;;;-0.50;100.00
36092;BME280;22147;52.388;13.390;2023-01-30T00:52:06;100608.66;;;-0.30;100.00
36092;BME280;22147;52.388;13.390;2023-01-30T00:54:34;100591.91;;;-0.44;100.00
36092;BME280;22147;52.388;13.390;2023-01-30T00:57:03;100570.53;;;-0.52;100.00
36092;BME280;22147;52.388;13.390;2023-01-30T00:59:31;100560.03;;;-0.38;100.00
36092;BME280;22147;52.388;13.390;2023-01-30T01:02:00;100564.84;;;-0.50;100.00
36092;BME280;22147;52.388;13.390;2023-01-30T01:04:28;100563.19;;;-0.51;100.00
36092;BME280;22147;52.388;13.390;2023-01-30T01:06:57;100554.28;;;-0.42;100.00
36092;BME280;22147;52.388;13.390;2023-01-30T01:09:27;100560.03;;;-0.38;100.00
36092;BME280;22147;52.388;13.390;2023-01-30T01:11:57;100563.03;;;-0.39;100.00
36092;BME280;22147;52.388;13.390;2023-01-30T01:14:27;100565.66;;;-0.50;100.00
36092;BME280;22147;52.388;13.390;2023-01-30T01:16:58;100558.00;;;-0.53;100.00
36092;BME280;22147;52.388;13.390;2023-01-30T01:19:26;100561.88;;;-0.44;100.00
36092;BME280;22147;52.388;13.390;2023-01-30T01:21:54;100546.69;;;-0.34;100.00
36092;BME280;22147;52.388;13.390;2023-01-30T01:24:23;100533.16;;;-0.51;100.00
36092;BME280;22147;52.388;13.390;2023-01-30T01:26:51;100502.38;;;-0.47;100.00
36092;BME280;22147;52.388;13.390;2023-01-30T01:29:20;100494.75;;;-0.45;100.00
36092;BME280;22147;52.388;13.390;2023-01-30T01:31:50;100504.03;;;-0.46;100.00
36092;BME280;22147;52.388;13.390;2023-01-30T01:34:18;100501.25;;;-0.51;100.00
36092;BME280;22147;52.388;13.390;2023-01-30T01:36:48;100493.94;;;-0.45;100.00
36092;BME280;22147;52.388;13.390;2023-01-30T01:39:23;100501.84;;;-0.44;100.00
36092;BME280;22147;52.388;13.390;2023-01-30T01:41:52;100499.63;;;-0.47;100.00
36092;BME280;22147;52.388;13.390;2023-01-30T01:44:24;100489.97;;;-0.59;100.00
36092;BME280;22147;52.388;13.390;2023-01-30T01:46:59;100507.31;;;-0.44;100.00
36092;BME280;22147;52.388;13.390;2023-01-30T01:49:34;100518.44;;;-0.50;100.00
36092;BME280;22147;52.388;13.390;2023-01-30T01:52:15;100521.44;;;-0.52;100.00
36092;BME280;22147;52.388;13.390;2023-01-30T01:55:00;100523.63;;;-0.49;100.00
36092;BME280;22147;52.388;13.390;2023-01-30T01:57:51;100513.00;;;-0.50;100.00
36092;BME280;22147;52.388;13.390;2023-01-30T02:00:25;100504.63;;;-0.38;100.00
36092;BME280;22147;52.388;13.390;2023-01-30T02:03:11;100502.22;;;-0.30;100.00
36092;BME280;22147;52.388;13.390;2023-01-30T02:05:54;100487.53;;;-0.24;100.00
36092;BME280;22147;52.388;13.390;2023-01-30T02:08:44;100459.25;;;-0.50;100.00
36092;BME280;22147;52.388;13.390;2023-01-30T02:11:57;100455.25;;;-0.37;100.00
36092;BME280;22147;52.388;13.390;2023-01-30T02:14:34;100436.94;;;-0.42;100.00
36092;BME280;22147;52.388;13.390;2023-01-30T02:17:06;100430.16;;;-0.34;100.00
36092;BME280;22147;52.388;13.390;2023-01-30T02:26:52;100401.06;;;-0.55;100.00
36092;BME280;22147;52.388;13.390;2023-01-30T02:33:20;100384.09;;;-0.68;100.00
36092;BME280;22147;52.388;13.390;2023-01-30T02:39:41;100375.06;;;-0.73;100.00
36092;BME280;22147;52.388;13.390;2023-01-30T02:49:31;100362.44;;;-0.42;100.00
36092;BME280;22147;52.388;13.390;2023-01-30T02:52:08;100359.09;;;-0.49;100.00
36092;BME280;22147;52.388;13.390;2023-01-30T02:54:40;100342.56;;;-0.32;100.00
36092;BME280;22147;52.388;13.390;2023-01-30T02:57:23;100355.25;;;-0.58;100.00
36092;BME280;22147;52.388;13.390;2023-01-30T03:00:03;100330.38;;;-0.67;100.00
36092;BME280;22147;52.388;13.390;2023-01-30T03:03:05;100314.78;;;-0.72;100.00
36092;BME280;22147;52.388;13.390;2023-01-30T03:09:47;100297.88;;;-0.69;100.00
36092;BME280;22147;52.388;13.390;2023-01-30T03:12:48;100299.97;;;-0.86;100.00
36092;BME280;22147;52.388;13.390;2023-01-30T03:15:44;100284.50;;;-0.70;100.00
36092;BME280;22147;52.388;13.390;2023-01-30T03:18:20;100291.63;;;-0.69;100.00
36092;BME280;22147;52.388;13.390;2023-01-30T03:20:51;100283.19;;;-0.63;100.00
36092;BME280;22147;52.388;13.390;2023-01-30T03:23:21;100273.97;;;-0.56;100.00
36092;BME280;22147;52.388;13.390;2023-01-30T03:25:51;100265.19;;;-0.64;100.00
36092;BME280;22147;52.388;13.390;2023-01-30T03:28:22;100250.78;;;-0.54;100.00
36092;BME280;22147;52.388;13.390;2023-01-30T03:30:52;100255.09;;;-0.63;100.00
36092;BME280;22147;52.388;13.390;2023-01-30T03:33:22;100247.75;;;-0.57;100.00
36092;BME280;22147;52.388;13.390;2023-01-30T03:35:53;100249.41;;;-0.56;100.00
36092;BME280;22147;52.388;13.390;2023-01-30T03:38:23;100252.66;;;-0.59;100.00
36092;BME280;22147;52.388;13.390;2023-01-30T03:40:53;100255.97;;;-0.52;100.00
36092;BME280;22147;52.388;13.390;2023-01-30T03:43:23;100253.50;;;-0.49;100.00
36092;BME280;22147;52.388;13.390;2023-01-30T03:45:54;100247.78;;;-0.47;100.00
36092;BME280;22147;52.388;13.390;2023-01-30T03:48:24;100239.09;;;-0.39;100.00
36092;BME280;22147;52.388;13.390;2023-01-30T03:50:55;100231.78;;;-0.33;100.00
36092;BME280;22147;52.388;13.390;2023-01-30T03:53:25;100225.22;;;-0.32;100.00
36092;BME280;22147;52.388;13.390;2023-01-30T03:55:55;100224.66;;;-0.34;100.00
36092;BME280;22147;52.388;13.390;2023-01-30T03:58:25;100214.88;;;-0.25;100.00
36092;BME280;22147;52.388;13.390;2023-01-30T04:00:56;100213.22;;;-0.26;100.00
36092;BME280;22147;52.388;13.390;2023-01-30T04:03:26;100212.69;;;-0.23;100.00
36092;BME280;22147;52.388;13.390;2023-01-30T04:05:59;100213.00;;;-0.09;100.00
36092;BME280;22147;52.388;13.390;2023-01-30T04:08:29;100212.16;;;-0.25;100.00
36092;BME280;22147;52.388;13.390;2023-01-30T04:10:59;100184.03;;;-0.21;100.00
36092;BME280;22147;52.388;13.390;2023-01-30T04:13:29;100175.81;;;-0.36;100.00
36092;BME280;22147;52.388;13.390;2023-01-30T04:16:21;100178.84;;;-0.22;100.00
36092;BME280;22147;52.388;13.390;2023-01-30T04:18:53;100177.22;;;-0.18;100.00
36092;BME280;22147;52.388;13.390;2023-01-30T04:21:22;100167.09;;;-0.17;100.00
36092;BME280;22147;52.388;13.390;2023-01-30T04:23:50;100173.69;;;-0.18;100.00
36092;BME280;22147;52.388;13.390;2023-01-30T04:26:19;100169.59;;;-0.01;100.00
36092;BME280;22147;52.388;13.390;2023-01-30T04:28:47;100170.44;;;0.15;100.00
36092;BME280;22147;52.388;13.390;2023-01-30T04:31:16;100154.84;;;0.06;100.00
36092;BME280;22147;52.388;13.390;2023-01-30T04:33:44;100162.53;;;0.09;100.00
36092;BME280;22147;52.388;13.390;2023-01-30T04:36:13;100158.16;;;0.03;100.00
36092;BME280;22147;52.388;13.390;2023-01-30T04:38:41;100158.41;;;0.06;100.00
36092;BME280;22147;52.388;13.390;2023-01-30T04:41:09;100150.78;;;-0.02;100.00
36092;BME280;22147;52.388;13.390;2023-01-30T04:43:38;100160.59;;;0.09;100.00
36092;BME280;22147;52.388;13.390;2023-01-30T04:46:06;100150.22;;;0.16;100.00
36092;BME280;22147;52.388;13.390;2023-01-30T04:48:35;100160.34;;;0.16;100.00
36092;BME280;22147;52.388;13.390;2023-01-30T04:51:03;100144.50;;;0.13;100.00
36092;BME280;22147;52.388;13.390;2023-01-30T04:53:32;100136.03;;;0.30;100.00
36092;BME280;22147;52.388;13.390;2023-01-30T04:56:00;100127.53;;;0.31;100.00
36092;BME280;22147;52.388;13.390;2023-01-30T04:58:29;100123.72;;;0.22;100.00
36092;BME280;22147;52.388;13.390;2023-01-30T05:01:34;100115.53;;;0.27;100.00
36092;BME280;22147;52.388;13.390;2023-01-30T05:04:07;100120.44;;;0.46;100.00
36092;BME280;22147;52.388;13.390;2023-01-30T05:06:37;100111.41;;;0.40;100.00
36092;BME280;22147;52.388;13.390;2023-01-30T05:09:07;100108.97;;;0.38;100.00
36092;BME280;22147;52.388;13.390;2023-01-30T05:11:36;100098.03;;;0.33;100.00
36092;BME280;22147;52.388;13.390;2023-01-30T05:14:04;100092.88;;;0.27;100.00
36092;BME280;22147;52.388;13.390;2023-01-30T05:16:32;100087.41;;;0.16;100.00
36092;BME280;22147;52.388;13.390;2023-01-30T05:19:00;100086.84;;;0.14;100.00
36092;BME280;22147;52.388;13.390;2023-01-30T05:21:29;100085.50;;;0.07;100.00
36092;BME280;22147;52.388;13.390;2023-01-30T05:23:57;100077.59;;;0.00;100.00
36092;BME280;22147;52.388;13.390;2023-01-30T05:26:26;100077.59;;;0.05;100.00
36092;BME280;22147;52.388;13.390;2023-01-30T05:28:57;100078.94;;;-0.13;100.00
36092;BME280;22147;52.388;13.390;2023-01-30T05:31:26;100080.84;;;-0.13;100.00
36092;BME280;22147;52.388;13.390;2023-01-30T05:33:54;100081.94;;;-0.19;100.00
36092;BME280;22147;52.388;13.390;2023-01-30T05:36:23;100070.75;;;-0.03;100.00
36092;BME280;22147;52.388;13.390;2023-01-30T05:38:51;100069.69;;;-0.17;100.00
36092;BME280;22147;52.388;13.390;2023-01-30T05:41:19;100070.22;;;-0.20;100.00
36092;BME280;22147;52.388;13.390;2023-01-30T05:43:49;100059.03;;;-0.34;100.00
36092;BME280;22147;52.388;13.390;2023-01-30T05:46:20;100061.22;;;-0.36;100.00
36092;BME280;22147;52.388;13.390;2023-01-30T05:48:50;100052.47;;;-0.38;100.00
36092;BME280;22147;52.388;13.390;2023-01-30T05:51:26;100049.75;;;-0.33;100.00
36092;BME280;22147;52.388;13.390;2023-01-30T05:53:56;100039.66;;;-0.37;100.00
36092;BME280;22147;52.388;13.390;2023-01-30T05:56:26;100040.47;;;-0.27;100.00
36092;BME280;22147;52.388;13.390;2023-01-30T05:58:56;100029.81;;;-0.18;100.00
36092;BME280;22147;52.388;13.390;2023-01-30T06:01:28;100020.81;;;-0.18;100.00
36092;BME280;22147;52.388;13.390;2023-01-30T06:03:59;100009.88;;;-0.13;100.00
36092;BME280;22147;52.388;13.390;2023-01-30T06:06:29;100012.88;;;-0.15;100.00
36092;BME280;22147;52.388;13.390;2023-01-30T06:08:59;100018.34;;;-0.20;100.00
36092;BME280;22147;52.388;13.390;2023-01-30T06:11:29;100006.63;;;0.00;100.00
36092;BME280;22147;52.388;13.390;2023-01-30T06:13:59;100005.25;;;-0.13;100.00
36092;BME280;22147;52.388;13.390;2023-01-30T06:16:29;100010.72;;;-0.18;100.00
36092;BME280;22147;52.388;13.390;2023-01-30T06:18:59;99999.78;;;-0.08;100.00
36092;BME280;22147;52.388;13.390;2023-01-30T06:21:30;100012.06;;;-0.05;100.00
36092;BME280;22147;52.388;13.390;2023-01-30T06:24:00;100007.44;;;-0.10;100.00
36092;BME280;22147;52.388;13.390;2023-01-30T06:26:31;99995.16;;;-0.02;100.00
36092;BME280;22147;52.388;13.390;2023-01-30T06:29:01;100003.06;;;0.05;100.00
36092;BME280;22147;52.388;13.390;2023-01-30T06:31:31;100004.41;;;0.02;100.00
36092;BME280;22147;52.388;13.390;2023-01-30T06:34:01;100006.56;;;0.26;100.00
36092;BME280;22147;52.388;13.390;2023-01-30T06:36:31;100004.94;;;0.19;100.00
36092;BME280;22147;52.388;13.390;2023-01-30T06:39:02;100003.84;;;0.26;100.00
36092;BME280;22147;52.388;13.390;2023-01-30T06:41:32;100009.53;;;0.39;100.00
36092;BME280;22147;52.388;13.390;2023-01-30T06:44:02;100014.47;;;0.32;100.00
36092;BME280;22147;52.388;13.390;2023-01-30T06:46:32;100018.50;;;0.50;100.00
36092;BME280;22147;52.388;13.390;2023-01-30T06:49:03;100007.91;;;0.38;100.00
36092;BME280;22147;52.388;13.390;2023-01-30T06:51:33;100019.91;;;0.43;100.00
36092;BME280;22147;52.388;13.390;2023-01-30T06:54:03;100005.97;;;0.34;100.00
36092;BME280;22147;52.388;13.390;2023-01-30T06:56:33;100004.66;;;0.26;100.00
36092;BME280;22147;52.388;13.390;2023-01-30T06:59:03;100009.84;;;0.28;100.00
36092;BME280;22147;52.388;13.390;2023-01-30T07:01:32;100010.91;;;0.27;100.00
36092;BME280;22147;52.388;13.390;2023-01-30T07:04:02;100013.94;;;0.30;100.00
36092;BME280;22147;52.388;13.390;2023-01-30T07:06:30;99999.13;;;0.42;100.00
36092;BME280;22147;52.388;13.390;2023-01-30T07:08:59;99996.13;;;0.38;100.00
36092;BME280;22147;52.388;13.390;2023-01-30T07:11:27;99992.50;;;0.63;100.00
36092;BME280;22147;52.388;13.390;2023-01-30T07:13:58;99981.25;;;0.70;100.00
36092;BME280;22147;52.388;13.390;2023-01-30T07:16:26;99973.97;;;0.50;100.00
36092;BME280;22147;52.388;13.390;2023-01-30T07:18:58;99976.66;;;0.55;100.00
36092;BME280;22147;52.388;13.390;2023-01-30T07:21:26;99979.69;;;0.53;100.00
36092;BME280;22147;52.388;13.390;2023-01-30T07:23:54;99976.66;;;0.60;100.00
36092;BME280;22147;52.388;13.390;2023-01-30T07:26:23;99970.13;;;0.56;100.00
36092;BME280;22147;52.388;13.390;2023-01-30T07:28:51;99973.13;;;0.59;100.00
36092;BME280;22147;52.388;13.390;2023-01-30T07:31:20;99956.97;;;0.63;100.00
36092;BME280;22147;52.388;13.390;2023-01-30T07:33:50;99962.44;;;0.63;100.00
36092;BME280;22147;52.388;13.390;2023-01-30T07:36:20;99968.72;;;0.64;100.00
36092;BME280;22147;52.388;13.390;2023-01-30T07:38:49;99978.25;;;0.76;100.00
36092;BME280;22147;52.388;13.390;2023-01-30T07:41:19;99965.38;;;0.77;100.00
36092;BME280;22147;52.388;13.390;2023-01-30T07:43:49;99965.81;;;0.94;100.00
36092;BME280;22147;52.388;13.390;2023-01-30T07:46:19;99961.47;;;0.93;100.00
36092;BME280;22147;52.388;13.390;2023-01-30T07:48:49;99971.56;;;0.98;100.00
36092;BME280;22147;52.388;13.390;2023-01-30T07:51:18;99982.50;;;0.93;100.00
36092;BME280;22147;52.388;13.390;2023-01-30T07:53:48;99977.81;;;0.98;100.00
36092;BME280;22147;52.388;13.390;2023-01-30T07:56:19;99982.16;;;1.05;100.00
36092;BME280;22147;52.388;13.390;2023-01-30T07:58:54;99981.91;;;1.06;100.00
36092;BME280;22147;52.388;13.390;2023-01-30T08:01:23;99989.25;;;1.06;100.00
36092;BME280;22147;52.388;13.390;2023-01-30T08:03:53;99993.06;;;1.10;100.00
36092;BME280;22147;52.388;13.390;2023-01-30T08:06:22;99992.00;;;1.06;100.00
36092;BME280;22147;52.388;13.390;2023-01-30T08:08:52;99990.06;;;1.11;100.00
36092;BME280;22147;52.388;13.390;2023-01-30T08:11:22;99981.00;;;1.16;100.00
36092;BME280;22147;52.388;13.390;2023-01-30T08:13:52;99983.50;;;1.12;100.00
36092;BME280;22147;52.388;13.390;2023-01-30T08:16:22;99989.41;;;1.25;100.00
36092;BME280;22147;52.388;13.390;2023-01-30T08:18:52;99984.41;;;1.37;100.00
36092;BME280;22147;52.388;13.390;2023-01-30T08:21:20;99981.69;;;1.37;100.00
36092;BME280;22147;52.388;13.390;2023-01-30T08:23:48;99981.41;;;1.38;100.00
36092;BME280;22147;52.388;13.390;2023-01-30T08:26:17;99979.69;;;1.48;100.00
36092;BME280;22147;52.388;13.390;2023-01-30T08:28:46;99986.53;;;1.45;100.00
36092;BME280;22147;52.388;13.390;2023-01-30T08:31:17;99983.81;;;1.45;100.00
36092;BME280;22147;52.388;13.390;2023-01-30T08:33:46;99980.00;;;1.46;100.00
36092;BME280;22147;52.388;13.390;2023-01-30T08:36:15;99972.59;;;1.47;100.00
36092;BME280;22147;52.388;13.390;2023-01-30T08:38:43;99962.31;;;1.62;100.00
36092;BME280;22147;52.388;13.390;2023-01-30T08:41:12;99962.03;;;1.64;100.00
36092;BME280;22147;52.388;13.390;2023-01-30T08:43:40;99964.44;;;1.71;100.00
36092;BME280;22147;52.388;13.390;2023-01-30T08:46:09;99963.56;;;1.75;100.00
36092;BME280;22147;52.388;13.390;2023-01-30T08:48:37;99964.72;;;1.69;100.00
36092;BME280;22147;52.388;13.390;2023-01-30T08:51:18;99961.94;;;1.74;100.00
36092;BME280;22147;52.388;13.390;2023-01-30T08:53:48;99963.28;;;1.77;100.00
36092;BME280;22147;52.388;13.390;2023-01-30T08:56:19;99965.66;;;1.89;100.00
36092;BME280;22147;52.388;13.390;2023-01-30T08:58:48;99957.91;;;1.96;100.00
36092;BME280;22147;52.388;13.390;2023-01-30T09:01:18;99958.91;;;2.05;100.00
36092;BME280;22147;52.388;13.390;2023-01-30T09:03:48;99969.47;;;2.17;100.00
36092;BME280;22147;52.388;13.390;2023-01-30T09:06:18;99962.94;;;2.37;100.00
36092;BME280;22147;52.388;13.390;2023-01-30T09:08:48;99958.84;;;2.34;100.00
36092;BME280;22147;52.388;13.390;2023-01-30T09:11:17;99967.72;;;2.50;100.00
36092;BME280;22147;52.388;13.390;2023-01-30T09:13:47;99972.59;;;2.77;100.00
36092;BME280;22147;52.388;13.390;2023-01-30T09:16:18;99966.25;;;3.01;100.00
36092;BME280;22147;52.388;13.390;2023-01-30T09:18:46;99970.19;;;3.14;100.00
36092;BME280;22147;52.388;13.390;2023-01-30T09:21:15;99965.63;;;3.23;100.00
36092;BME280;22147;52.388;13.390;2023-01-30T09:23:42;99964.75;;;3.28;100.00
36092;BME280;22147;52.388;13.390;2023-01-30T09:26:10;99950.63;;;3.34;100.00
36092;BME280;22147;52.388;13.390;2023-01-30T09:28:37;99961.94;;;3.33;100.00
36092;BME280;22147;52.388;13.390;2023-01-30T09:31:06;99964.16;;;3.31;100.00
36092;BME280;22147;52.388;13.390;2023-01-30T09:33:34;99978.31;;;3.38;100.00
36092;BME280;22147;52.388;13.390;2023-01-30T09:36:03;99972.50;;;3.58;100.00
36092;BME280;22147;52.388;13.390;2023-01-30T09:38:31;99989.53;;;3.74;100.00
36092;BME280;22147;52.388;13.390;2023-01-30T09:41:03;99987.13;;;3.86;100.00
36092;BME280;22147;52.388;13.390;2023-01-30T09:47:02;99976.41;;;3.71;100.00
36092;BME280;22147;52.388;13.390;2023-01-30T09:50:21;99979.38;;;3.75;100.00
36092;BME280;22147;52.388;13.390;2023-01-30T09:55:42;99977.19;;;3.91;100.00
36092;BME280;22147;52.388;13.390;2023-01-30T09:58:19;99979.13;;;3.90;100.00
36092;BME280;22147;52.388;13.390;2023-01-30T10:01:02;99974.06;;;4.11;100.00
36092;BME280;22147;52.388;13.390;2023-01-30T10:04:14;99984.38;;;4.33;100.00
36092;BME280;22147;52.388;13.390;2023-01-30T10:07:19;99988.72;;;4.20;100.00
36092;BME280;22147;52.388;13.390;2023-01-30T10:17:05;99971.31;;;4.11;100.00
36092;BME280;22147;52.388;13.390;2023-01-30T10:26:17;99967.16;;;4.27;100.00
36092;BME280;22147;52.388;13.390;2023-01-30T10:29:07;99971.16;;;4.49;100.00
36092;BME280;22147;52.388;13.390;2023-01-30T10:32:00;99971.03;;;4.68;100.00
36092;BME280;22147;52.388;13.390;2023-01-30T10:34:50;99968.56;;;4.94;100.00
36092;BME280;22147;52.388;13.390;2023-01-30T10:37:31;99960.28;;;5.08;100.00
36092;BME280;22147;52.388;13.390;2023-01-30T10:43:40;99962.44;;;5.34;100.00
36092;BME280;22147;52.388;13.390;2023-01-30T10:52:32;99953.84;;;5.13;100.00
36092;BME280;22147;52.388;13.390;2023-01-30T10:55:34;99950.16;;;5.03;100.00
36092;BME280;22147;52.388;13.390;2023-01-30T10:58:23;99943.91;;;4.89;100.00
36092;BME280;22147;52.388;13.390;2023-01-30T11:01:19;99942.56;;;4.86;100.00
36092;BME280;22147;52.388;13.390;2023-01-30T11:04:37;99955.09;;;4.93;100.00
36092;BME280;22147;52.388;13.390;2023-01-30T11:07:14;99935.22;;;4.96;100.00
36092;BME280;22147;52.388;13.390;2023-01-30T11:09:47;99942.19;;;4.79;100.00
36092;BME280;22147;52.388;13.390;2023-01-30T11:12:17;99939.66;;;4.69;100.00
36092;BME280;22147;52.388;13.390;2023-01-30T11:14:57;99942.47;;;4.78;100.00
36092;BME280;22147;52.388;13.390;2023-01-30T11:17:39;99940.69;;;4.59;100.00
36092;BME280;22147;52.388;13.390;2023-01-30T11:20:22;99942.91;;;4.71;100.00
36092;BME280;22147;52.388;13.390;2023-01-30T11:25:53;99932.09;;;4.75;100.00
36092;BME280;22147;52.388;13.390;2023-01-30T11:28:42;99923.66;;;4.71;100.00
36092;BME280;22147;52.388;13.390;2023-01-30T11:31:24;99912.56;;;4.62;100.00
36092;BME280;22147;52.388;13.390;2023-01-30T11:34:16;99908.88;;;4.81;100.00
36092;BME280;22147;52.388;13.390;2023-01-30T11:36:47;99892.97;;;4.78;100.00
36092;BME280;22147;52.388;13.390;2023-01-30T11:39:22;99897.03;;;4.80;100.00
36092;BME280;22147;52.388;13.390;2023-01-30T11:42:00;99881.78;;;4.74;100.00
36092;BME280;22147;52.388;13.390;2023-01-30T11:44:39;99873.34;;;4.93;100.00
36092;BME280;22147;52.388;13.390;2023-01-30T11:47:27;99880.91;;;4.87;100.00
36092;BME280;22147;52.388;13.390;2023-01-30T11:50:04;99873.75;;;5.00;100.00
36092;BME280;22147;52.388;13.390;2023-01-30T11:52:54;99861.75;;;5.19;100.00
36092;BME280;22147;52.388;13.390;2023-01-30T11:55:23;99861.91;;;5.22;100.00
36092;BME280;22147;52.388;13.390;2023-01-30T11:57:57;99853.22;;;5.29;100.00
36092;BME280;22147;52.388;13.390;2023-01-30T12:00:39;99869.72;;;5.51;100.00
36092;BME280;22147;52.388;13.390;2023-01-30T12:03:17;99840.16;;;5.66;100.00
36092;BME280;22147;52.388;13.390;2023-01-30T12:05:50;99853.94;;;5.66;100.00
36092;BME280;22147;52.388;13.390;2023-01-30T12:11:30;99827.59;;;5.82;100.00
36092;BME280;22147;52.388;13.390;2023-01-30T12:14:39;99833.19;;;5.68;100.00
36092;BME280;22147;52.388;13.390;2023-01-30T12:17:42;99822.78;;;5.57;100.00
36092;BME280;22147;52.388;13.390;2023-01-30T12:20:58;99839.13;;;5.53;100.00
36092;BME280;22147;52.388;13.390;2023-01-30T12:23:59;99840.06;;;5.48;100.00
36092;BME280;22147;52.388;13.390;2023-01-30T12:26:46;99830.38;;;5.28;100.00
36092;BME280;22147;52.388;13.390;2023-01-30T12:29:52;99822.28;;;5.55;100.00
36092;BME280;22147;52.388;13.390;2023-01-30T12:32:41;99836.59;;;5.65;100.00
36092;BME280;22147;52.388;13.390;2023-01-30T12:35:17;99824.13;;;5.68;100.00
36092;BME280;22147;52.388;13.390;2023-01-30T12:47:14;99806.63;;;6.13;100.00
36092;BME280;22147;52.388;13.390;2023-01-30T12:50:34;99811.34;;;6.12;100.00
36092;BME280;22147;52.388;13.390;2023-01-30T12:53:31;99806.31;;;6.14;100.00
36092;BME280;22147;52.388;13.390;2023-01-30T13:03:17;99793.81;;;6.08;100.00
36092;BME280;22147;52.388;13.390;2023-01-30T13:06:32;99817.72;;;6.39;100.00
36092;BME280;22147;52.388;13.390;2023-01-30T13:15:44;99797.91;;;5.79;100.00
36092;BME280;22147;52.388;13.390;2023-01-30T13:18:57;99810.84;;;5.70;100.00
36092;BME280;22147;52.388;13.390;2023-01-30T13:21:55;99809.06;;;5.65;100.00
36092;BME280;22147;52.388;13.390;2023-01-30T13:25:07;99801.31;;;5.45;100.00
36092;BME280;22147;52.388;13.390;2023-01-30T13:28:02;99805.31;;;5.07;100.00
36092;BME280;22147;52.388;13.390;2023-01-30T13:30:48;99797.59;;;5.18;100.00
36092;BME280;22147;52.388;13.390;2023-01-30T13:33:31;99804.44;;;5.21;100.00
36092;BME280;22147;52.388;13.390;2023-01-30T13:39:11;99794.19;;;5.13;100.00
36092;BME280;22147;52.388;13.390;2023-01-30T13:45:33;99779.97;;;5.19;100.00
36092;BME280;22147;52.388;13.390;2023-01-30T13:54:50;99779.91;;;4.65;100.00
36092;BME280;22147;52.388;13.390;2023-01-30T13:57:42;99789.66;;;4.49;100.00
36092;BME280;22147;52.388;13.390;2023-01-30T14:00:35;99769.63;;;4.35;100.00
36092;BME280;22147;52.388;13.390;2023-01-30T14:08:24;99783.81;;;4.28;100.00
36092;BME280;22147;52.388;13.390;2023-01-30T14:10:57;99790.44;;;4.13;100.00
36092;BME280;22147;52.388;13.390;2023-01-30T14:13:28;99785.50;;;3.87;100.00
36092;BME280;22147;52.388;13.390;2023-01-30T14:16:04;99823.72;;;3.70;100.00
36092;BME280;22147;52.388;13.390;2023-01-30T14:18:36;99817.69;;;3.40;100.00
36092;BME280;22147;52.388;13.390;2023-01-30T14:21:24;99837.78;;;3.22;100.00
36092;BME280;22147;52.388;13.390;2023-01-30T14:24:02;99835.31;;;2.88;100.00
36092;BME280;22147;52.388;13.390;2023-01-30T14:46:04;99904.19;;;1.76;100.00
36092;BME280;22147;52.388;13.390;2023-01-30T14:51:45;99941.72;;;1.99;100.00
36092;BME280;22147;52.388;13.390;2023-01-30T14:59:55;99945.19;;;2.05;100.00
36092;BME280;22147;52.388;13.390;2023-01-30T15:02:53;99948.38;;;2.17;100.00
36092;BME280;22147;52.388;13.390;2023-01-30T15:05:38;99939.84;;;2.19;100.00
36092;BME280;22147;52.388;13.390;2023-01-30T15:08:21;99945.44;;;2.33;100.00
36092;BME280;22147;52.388;13.390;2023-01-30T15:11:18;99945.16;;;2.34;100.00
36092;BME280;22147;52.388;13.390;2023-01-30T15:14:27;99949.03;;;2.33;100.00
36092;BME280;22147;52.388;13.390;2023-01-30T15:24:21;99953.72;;;2.28;100.00
36092;BME280;22147;52.388;13.390;2023-01-30T15:27:20;99935.16;;;2.24;100.00
36092;BME280;22147;52.388;13.390;2023-01-30T15:30:12;99942.31;;;2.20;100.00
36092;BME280;22147;52.388;13.390;2023-01-30T15:32:46;99938.16;;;2.23;100.00
36092;BME280;22147;52.388;13.390;2023-01-30T15:37:55;99950.72;;;2.29;100.00
36092;BME280;22147;52.388;13.390;2023-01-30T15:40:28;99947.25;;;2.42;100.00
36092;BME280;22147;52.388;13.390;2023-01-30T15:43:46;99957.75;;;2.35;100.00
36092;BME280;22147;52.388;13.390;2023-01-30T15:52:42;99962.25;;;2.50;100.00